Chippewa Bay, NY (13623)

6:25 PM EDT on September 04, 2015 (GMT -0400)
St. Lawrence River shoreline | | Change Station
CLOSE
Current Station
Personal Weather Station
Location: Brockville, ONTARIO
Elevation: 285 ft
Nearby Weather Stations

Elev 285 ft 44.54 °N, 75.76 °W | Updated 3 minutes ago

Clear
Clear
75.0 °F
Feels Like 78 °F
N
0.9
Wind Variable Wind from North
Gusts 6.0 mph

Today
High -- | Low -- °F
--% Chance of Precip.
Yesterday
High -- | Low -- °F
Precip. -- in
6:28 AM 7:34 PM
Waning Gibbous, 55% visible
Pressure 30.13 in
Visibility 10.0 miles
Clouds Clear
Heat Index 78 °F
Dew Point 58 °F
Humidity 56%
Rainfall 0.00 in
Snow Depth Not available.
UV 0.5 out of 12
Pollen 8.80 out of 12
Air Quality Not available.
Flu Activity Not available.
METAR KGTB 042158Z AUTO 05013KT 10SM CLR 26/15 A3013 RMK AO2 SLP201 T02630147
Pressure 30.13 in
Visibility 10.0 miles
Clouds Clear
Heat Index 78 °F
Dew Point 58 °F
Humidity 56%
Rainfall 0.00 in
Snow Depth Not available.
UV 0.5 out of 12
Pollen 8.80 out of 12
Air Quality Not available.
Flu Activity Not available.
METAR KGTB 042158Z AUTO 05013KT 10SM CLR 26/15 A3013 RMK AO2 SLP201 T02630147

10-Day Weather Forecast

×

Almanac

Astronomy

Sep. 04, 2015 Rise Set
Actual Time
Civil Twilight
Nautical Twilight
Astronomical Twilight
Moon
Length of Visible Light
Length of Day
Tomorrow will be .
, % of the Moon is Illuminated

Today's Extremes

State Highs State Lows

Community

WunderPhotos

Upload Photos

1,852,308 photos uploaded!

WunderBlogs® & News

Nearby

Air Quality

  Air Quality AQ Index Pollutant
Not available.

Snow Depth

Station Depth Elevation

Earthquake Activity

City Distance Mag. Time & Date
Minimum magnitude displayed is 2.5.

Coastal Water Temperatures

Place Temperature

Stations

Nearby Weather Stations

Station Location Temp. Windchill Dew Point Humidity Wind Precip. Elev Updated Type